sensor_id;sensor_type;location;lat;lon;timestamp;temperature;humidity
79026;DHT22;71097;44.760;37.726;2023-08-08T03:29:00;26.27;67.11
79026;DHT22;71097;44.760;37.726;2023-08-08T04:14:14;30.26;57.52
79026;DHT22;71097;44.760;37.726;2023-08-08T04:33:15;31.92;52.26
79026;DHT22;71097;44.760;37.726;2023-08-08T05:34:52;33.80;46.49
79026;DHT22;71097;44.760;37.726;2023-08-08T05:40:32;34.06;46.06
79026;DHT22;71097;44.760;37.726;2023-08-08T05:46:53;34.09;44.82
79026;DHT22;71097;44.760;37.726;2023-08-08T05:52:01;34.71;43.73
79026;DHT22;71097;44.760;37.726;2023-08-08T05:53:29;34.85;42.93
79026;DHT22;71097;44.760;37.726;2023-08-08T05:55:37;34.99;42.59
79026;DHT22;71097;44.760;37.726;2023-08-08T05:58:10;34.98;41.56
79026;DHT22;71097;44.760;37.726;2023-08-08T06:01:03;34.76;42.50
79026;DHT22;71097;44.760;37.726;2023-08-08T06:08:21;34.88;41.58
79026;DHT22;71097;44.760;37.726;2023-08-08T06:09:26;34.98;41.48
79026;DHT22;71097;44.760;37.726;2023-08-08T06:10:35;35.10;40.48
79026;DHT22;71097;44.760;37.726;2023-08-08T06:12:12;35.35;39.91
79026;DHT22;71097;44.760;37.726;2023-08-08T06:13:21;35.41;39.85
79026;DHT22;71097;44.760;37.726;2023-08-08T06:15:37;35.60;39.66
79026;DHT22;71097;44.760;37.726;2023-08-08T06:17:02;35.52;40.20
79026;DHT22;71097;44.760;37.726;2023-08-08T06:19:38;35.08;41.16
79026;DHT22;71097;44.760;37.726;2023-08-08T06:22:17;34.97;41.73
79026;DHT22;71097;44.760;37.726;2023-08-08T06:24:56;34.82;42.13
79026;DHT22;71097;44.760;37.726;2023-08-08T06:26:19;34.84;42.60
79026;DHT22;71097;44.760;37.726;2023-08-08T06:31:26;35.26;41.88
79026;DHT22;71097;44.760;37.726;2023-08-08T06:34:31;35.31;41.91
79026;DHT22;71097;44.760;37.726;2023-08-08T07:01:42;37.19;37.63
79026;DHT22;71097;44.760;37.726;2023-08-08T07:11:31;36.92;37.38
79026;DHT22;71097;44.760;37.726;2023-08-08T07:21:17;36.88;37.44
79026;DHT22;71097;44.760;37.726;2023-08-08T07:28:34;37.33;36.62
79026;DHT22;71097;44.760;37.726;2023-08-08T07:48:27;38.65;33.77
79026;DHT22;71097;44.760;37.726;2023-08-08T09:18:09;40.13;29.98
79026;DHT22;71097;44.760;37.726;2023-08-08T09:21:34;39.87;30.27
79026;DHT22;71097;44.760;37.726;2023-08-08T09:51:38;39.58;31.65
79026;DHT22;71097;44.760;37.726;2023-08-08T10:07:39;38.37;34.47
79026;DHT22;71097;44.760;37.726;2023-08-08T10:10:01;38.30;34.47
79026;DHT22;71097;44.760;37.726;2023-08-08T10:12:30;38.14;33.92
79026;DHT22;71097;44.760;37.726;2023-08-08T10:14:22;37.93;35.21
79026;DHT22;71097;44.760;37.726;2023-08-08T10:16:19;37.86;34.86
79026;DHT22;71097;44.760;37.726;2023-08-08T10:18:06;37.66;35.31
79026;DHT22;71097;44.760;37.726;2023-08-08T10:19:56;37.42;36.68
79026;DHT22;71097;44.760;37.726;2023-08-08T10:24:35;37.78;35.53
79026;DHT22;71097;44.760;37.726;2023-08-08T10:26:20;37.58;35.46
79026;DHT22;71097;44.760;37.726;2023-08-08T10:28:27;37.22;35.92
79026;DHT22;71097;44.760;37.726;2023-08-08T10:31:35;36.83;37.02
79026;DHT22;71097;44.760;37.726;2023-08-08T10:39:52;36.53;37.82
79026;DHT22;71097;44.760;37.726;2023-08-08T10:56:32;36.83;36.92
79026;DHT22;71097;44.760;37.726;2023-08-08T11:03:29;36.72;36.98
79026;DHT22;71097;44.760;37.726;2023-08-08T11:05:03;36.63;37.22
79026;DHT22;71097;44.760;37.726;2023-08-08T11:06:34;36.62;37.30
79026;DHT22;71097;44.760;37.726;2023-08-08T11:08:36;36.61;37.45
79026;DHT22;71097;44.760;37.726;2023-08-08T11:12:32;36.57;37.30
79026;DHT22;71097;44.760;37.726;2023-08-08T11:16:21;36.86;36.87
79026;DHT22;71097;44.760;37.726;2023-08-08T11:25:09;36.97;37.27
79026;DHT22;71097;44.760;37.726;2023-08-08T11:31:19;36.61;37.69
79026;DHT22;71097;44.760;37.726;2023-08-08T11:37:19;36.58;37.84
79026;DHT22;71097;44.760;37.726;2023-08-08T11:40:00;36.28;38.66
79026;DHT22;71097;44.760;37.726;2023-08-08T11:58:59;36.82;37.87
79026;DHT22;71097;44.760;37.726;2023-08-08T12:01:48;36.78;37.62
79026;DHT22;71097;44.760;37.726;2023-08-08T12:03:31;36.62;38.23
79026;DHT22;71097;44.760;37.726;2023-08-08T12:05:37;36.33;38.85
79026;DHT22;71097;44.760;37.726;2023-08-08T12:08:56;36.39;39.01
79026;DHT22;71097;44.760;37.726;2023-08-08T12:11:50;36.69;38.70
79026;DHT22;71097;44.760;37.726;2023-08-08T12:14:01;36.58;38.00
79026;DHT22;71097;44.760;37.726;2023-08-08T12:17:05;36.47;38.71
79026;DHT22;71097;44.760;37.726;2023-08-08T12:19:42;36.22;38.94
79026;DHT22;71097;44.760;37.726;2023-08-08T12:25:24;35.85;40.23
79026;DHT22;71097;44.760;37.726;2023-08-08T12:27:59;35.89;40.17
79026;DHT22;71097;44.760;37.726;2023-08-08T12:32:49;36.34;38.63
79026;DHT22;71097;44.760;37.726;2023-08-08T12:39:47;36.24;38.77
79026;DHT22;71097;44.760;37.726;2023-08-08T12:49:12;36.07;39.27
79026;DHT22;71097;44.760;37.726;2023-08-08T12:54:49;35.97;39.68
79026;DHT22;71097;44.760;37.726;2023-08-08T12:57:23;35.94;39.68
79026;DHT22;71097;44.760;37.726;2023-08-08T13:00:16;36.06;39.23
79026;DHT22;71097;44.760;37.726;2023-08-08T13:04:09;35.83;40.30
79026;DHT22;71097;44.760;37.726;2023-08-08T13:06:31;35.66;40.46
79026;DHT22;71097;44.760;37.726;2023-08-08T13:14:00;35.90;40.41
79026;DHT22;71097;44.760;37.726;2023-08-08T13:17:08;35.86;39.64
79026;DHT22;71097;44.760;37.726;2023-08-08T13:27:22;35.65;40.20
79026;DHT22;71097;44.760;37.726;2023-08-08T13:30:36;35.70;40.37
79026;DHT22;71097;44.760;37.726;2023-08-08T13:40:01;35.29;41.29
79026;DHT22;71097;44.760;37.726;2023-08-08T13:43:13;35.12;41.49
79026;DHT22;71097;44.760;37.726;2023-08-08T13:54:42;34.99;42.07
79026;DHT22;71097;44.760;37.726;2023-08-08T14:01:30;35.06;41.98
79026;DHT22;71097;44.760;37.726;2023-08-08T14:04:51;35.01;41.68
79026;DHT22;71097;44.760;37.726;2023-08-08T14:11:18;35.01;41.62
79026;DHT22;71097;44.760;37.726;2023-08-08T14:52:52;33.85;44.32
79026;DHT22;71097;44.760;37.726;2023-08-08T14:55:45;33.85;44.48
79026;DHT22;71097;44.760;37.726;2023-08-08T15:05:37;33.79;44.60
79026;DHT22;71097;44.760;37.726;2023-08-08T15:11:25;33.76;44.31
79026;DHT22;71097;44.760;37.726;2023-08-08T15:13:50;33.67;44.36
79026;DHT22;71097;44.760;37.726;2023-08-08T15:16:51;33.60;44.90
79026;DHT22;71097;44.760;37.726;2023-08-08T15:22:42;33.46;44.73
79026;DHT22;71097;44.760;37.726;2023-08-08T15:25:29;33.30;46.01
79026;DHT22;71097;44.760;37.726;2023-08-08T15:59:04;32.39;49.96
79026;DHT22;71097;44.760;37.726;2023-08-08T16:02:13;32.28;50.40
79026;DHT22;71097;44.760;37.726;2023-08-08T16:08:54;32.28;50.85
79026;DHT22;71097;44.760;37.726;2023-08-08T16:14:39;32.11;51.31
79026;DHT22;71097;44.760;37.726;2023-08-08T16:17:02;32.15;51.30
79026;DHT22;71097;44.760;37.726;2023-08-08T16:19:45;32.19;51.43
79026;DHT22;71097;44.760;37.726;2023-08-08T16:21:55;32.25;50.56
79026;DHT22;71097;44.760;37.726;2023-08-08T16:24:14;32.29;49.82
79026;DHT22;71097;44.760;37.726;2023-08-08T16:59:08;31.97;49.07
79026;DHT22;71097;44.760;37.726;2023-08-08T17:02:16;31.84;49.66
79026;DHT22;71097;44.760;37.726;2023-08-08T17:04:49;31.74;50.25
79026;DHT22;71097;44.760;37.726;2023-08-08T17:06:53;31.65;50.68
79026;DHT22;71097;44.760;37.726;2023-08-08T17:19:04;31.36;50.83
79026;DHT22;71097;44.760;37.726;2023-08-08T17:21:46;31.34;50.98
79026;DHT22;71097;44.760;37.726;2023-08-08T17:41:34;30.84;51.70
79026;DHT22;71097;44.760;37.726;2023-08-08T17:42:35;30.83;51.23
79026;DHT22;71097;44.760;37.726;2023-08-08T17:43:37;30.82;51.34
79026;DHT22;71097;44.760;37.726;2023-08-08T17:44:39;30.77;51.12
79026;DHT22;71097;44.760;37.726;2023-08-08T17:45:40;30.77;51.11
79026;DHT22;71097;44.760;37.726;2023-08-08T17:46:45;30.76;51.13
79026;DHT22;71097;44.760;37.726;2023-08-08T17:47:46;30.68;51.12
79026;DHT22;71097;44.760;37.726;2023-08-08T17:48:48;30.66;51.25
79026;DHT22;71097;44.760;37.726;2023-08-08T17:49:50;30.65;51.17
79026;DHT22;71097;44.760;37.726;2023-08-08T17:50:55;30.62;51.14
79026;DHT22;71097;44.760;37.726;2023-08-08T17:51:56;30.62;51.14
79026;DHT22;71097;44.760;37.726;2023-08-08T17:52:58;30.61;51.28
79026;DHT22;71097;44.760;37.726;2023-08-08T17:54:00;30.61;51.36
79026;DHT22;71097;44.760;37.726;2023-08-08T17:55:01;30.60;51.45
79026;DHT22;71097;44.760;37.726;2023-08-08T17:56:03;30.57;51.41
79026;DHT22;71097;44.760;37.726;2023-08-08T17:57:05;30.57;51.49
79026;DHT22;71097;44.760;37.726;2023-08-08T17:58:07;30.54;51.56
79026;DHT22;71097;44.760;37.726;2023-08-08T17:59:09;30.55;51.40
79026;DHT22;71097;44.760;37.726;2023-08-08T18:00:11;30.57;50.86
79026;DHT22;71097;44.760;37.726;2023-08-08T18:01:13;30.54;50.74
79026;DHT22;71097;44.760;37.726;2023-08-08T18:02:15;30.53;50.02
79026;DHT22;71097;44.760;37.726;2023-08-08T18:03:17;30.54;48.86
79026;DHT22;71097;44.760;37.726;2023-08-08T18:04:18;30.56;48.93
79026;DHT22;71097;44.760;37.726;2023-08-08T18:05:21;30.59;49.73
79026;DHT22;71097;44.760;37.726;2023-08-08T18:06:23;30.60;49.69
79026;DHT22;71097;44.760;37.726;2023-08-08T18:07:24;30.61;49.73
79026;DHT22;71097;44.760;37.726;2023-08-08T18:08:26;30.60;49.66
79026;DHT22;71097;44.760;37.726;2023-08-08T18:09:27;30.63;49.84
79026;DHT22;71097;44.760;37.726;2023-08-08T18:10:31;30.62;49.37
79026;DHT22;71097;44.760;37.726;2023-08-08T18:11:36;30.63;49.79
79026;DHT22;71097;44.760;37.726;2023-08-08T18:12:42;30.56;50.55
79026;DHT22;71097;44.760;37.726;2023-08-08T18:13:43;30.54;50.66
79026;DHT22;71097;44.760;37.726;2023-08-08T18:14:45;30.49;50.93
79026;DHT22;71097;44.760;37.726;2023-08-08T18:15:47;30.47;50.93
79026;DHT22;71097;44.760;37.726;2023-08-08T18:16:50;30.41;50.24
79026;DHT22;71097;44.760;37.726;2023-08-08T18:17:52;30.39;50.66
79026;DHT22;71097;44.760;37.726;2023-08-08T18:18:53;30.37;51.17
79026;DHT22;71097;44.760;37.726;2023-08-08T18:19:57;30.40;51.30
79026;DHT22;71097;44.760;37.726;2023-08-08T18:20:59;30.36;51.41
79026;DHT22;71097;44.760;37.726;2023-08-08T18:22:00;30.33;51.14
79026;DHT22;71097;44.760;37.726;2023-08-08T18:23:03;30.31;51.51
79026;DHT22;71097;44.760;37.726;2023-08-08T18:24:05;30.30;51.57
79026;DHT22;71097;44.760;37.726;2023-08-08T18:25:07;30.26;51.66
79026;DHT22;71097;44.760;37.726;2023-08-08T18:26:10;30.24;51.79
79026;DHT22;71097;44.760;37.726;2023-08-08T18:27:16;30.21;51.67
79026;DHT22;71097;44.760;37.726;2023-08-08T18:28:18;30.20;51.59
79026;DHT22;71097;44.760;37.726;2023-08-08T18:29:21;30.16;51.75
79026;DHT22;71097;44.760;37.726;2023-08-08T18:30:23;30.12;51.86
79026;DHT22;71097;44.760;37.726;2023-08-08T18:31:26;30.11;51.86
79026;DHT22;71097;44.760;37.726;2023-08-08T18:32:27;30.09;51.79
79026;DHT22;71097;44.760;37.726;2023-08-08T18:33:29;30.06;52.00
79026;DHT22;71097;44.760;37.726;2023-08-08T18:34:30;30.03;52.10
79026;DHT22;71097;44.760;37.726;2023-08-08T18:35:34;30.01;52.41
79026;DHT22;71097;44.760;37.726;2023-08-08T18:36:36;29.96;52.24
79026;DHT22;71097;44.760;37.726;2023-08-08T18:37:38;29.94;52.21
79026;DHT22;71097;44.760;37.726;2023-08-08T18:38:40;29.94;51.95
79026;DHT22;71097;44.760;37.726;2023-08-08T18:39:43;29.94;51.98
79026;DHT22;71097;44.760;37.726;2023-08-08T18:40:45;29.93;51.73
79026;DHT22;71097;44.760;37.726;2023-08-08T18:41:50;29.98;51.15
79026;DHT22;71097;44.760;37.726;2023-08-08T18:42:54;29.96;50.89
79026;DHT22;71097;44.760;37.726;2023-08-08T18:44:05;29.94;51.46
79026;DHT22;71097;44.760;37.726;2023-08-08T18:45:10;29.97;51.79
79026;DHT22;71097;44.760;37.726;2023-08-08T18:46:12;29.94;51.86
79026;DHT22;71097;44.760;37.726;2023-08-08T18:47:21;29.92;51.70
79026;DHT22;71097;44.760;37.726;2023-08-08T18:48:26;29.90;51.42
79026;DHT22;71097;44.760;37.726;2023-08-08T18:49:33;29.93;50.75
79026;DHT22;71097;44.760;37.726;2023-08-08T18:50:37;29.90;50.96
79026;DHT22;71097;44.760;37.726;2023-08-08T18:51:41;29.92;51.03
79026;DHT22;71097;44.760;37.726;2023-08-08T18:52:43;29.88;51.20
79026;DHT22;71097;44.760;37.726;2023-08-08T18:53:46;29.90;51.08
79026;DHT22;71097;44.760;37.726;2023-08-08T18:54:50;29.89;50.69
79026;DHT22;71097;44.760;37.726;2023-08-08T18:55:55;29.88;51.14
79026;DHT22;71097;44.760;37.726;2023-08-08T18:57:05;29.90;51.85
79026;DHT22;71097;44.760;37.726;2023-08-08T18:58:09;29.94;52.01
79026;DHT22;71097;44.760;37.726;2023-08-08T18:59:16;29.83;51.48
79026;DHT22;71097;44.760;37.726;2023-08-08T19:00:18;29.85;51.16
79026;DHT22;71097;44.760;37.726;2023-08-08T19:01:20;29.86;50.82
79026;DHT22;71097;44.760;37.726;2023-08-08T19:02:21;29.87;50.69
79026;DHT22;71097;44.760;37.726;2023-08-08T19:03:23;29.88;50.69
79026;DHT22;71097;44.760;37.726;2023-08-08T19:04:25;29.88;51.12
79026;DHT22;71097;44.760;37.726;2023-08-08T19:05:27;29.91;50.98
79026;DHT22;71097;44.760;37.726;2023-08-08T19:06:28;29.89;50.76
79026;DHT22;71097;44.760;37.726;2023-08-08T19:07:30;29.89;50.94
79026;DHT22;71097;44.760;37.726;2023-08-08T19:08:32;29.88;51.01
79026;DHT22;71097;44.760;37.726;2023-08-08T19:09:33;29.90;50.97
79026;DHT22;71097;44.760;37.726;2023-08-08T19:10:35;29.90;50.67
79026;DHT22;71097;44.760;37.726;2023-08-08T19:11:37;29.87;50.63
79026;DHT22;71097;44.760;37.726;2023-08-08T19:12:39;29.88;50.71
79026;DHT22;71097;44.760;37.726;2023-08-08T19:13:40;29.91;50.79
79026;DHT22;71097;44.760;37.726;2023-08-08T19:14:42;29.90;51.02
79026;DHT22;71097;44.760;37.726;2023-08-08T19:15:43;29.90;50.82
79026;DHT22;71097;44.760;37.726;2023-08-08T19:16:45;29.88;50.47
79026;DHT22;71097;44.760;37.726;2023-08-08T19:17:47;29.89;50.79
79026;DHT22;71097;44.760;37.726;2023-08-08T19:18:49;29.89;50.29
79026;DHT22;71097;44.760;37.726;2023-08-08T19:19:50;29.83;50.55
79026;DHT22;71097;44.760;37.726;2023-08-08T19:20:52;29.85;50.63
79026;DHT22;71097;44.760;37.726;2023-08-08T19:21:54;29.88;50.67
79026;DHT22;71097;44.760;37.726;2023-08-08T19:22:56;29.88;50.67
79026;DHT22;71097;44.760;37.726;2023-08-08T19:23:58;29.85;50.47
79026;DHT22;71097;44.760;37.726;2023-08-08T19:25:00;29.85;50.30
79026;DHT22;71097;44.760;37.726;2023-08-08T19:26:01;29.83;49.93
79026;DHT22;71097;44.760;37.726;2023-08-08T19:27:03;29.83;49.82
79026;DHT22;71097;44.760;37.726;2023-08-08T19:28:05;29.83;49.99
79026;DHT22;71097;44.760;37.726;2023-08-08T19:29:06;29.87;50.04
79026;DHT22;71097;44.760;37.726;2023-08-08T19:30:11;29.85;50.14
79026;DHT22;71097;44.760;37.726;2023-08-08T19:31:14;29.88;50.27
79026;DHT22;71097;44.760;37.726;2023-08-08T19:32:16;29.88;49.53
79026;DHT22;71097;44.760;37.726;2023-08-08T19:33:17;29.87;49.08
79026;DHT22;71097;44.760;37.726;2023-08-08T19:34:19;29.86;49.04
79026;DHT22;71097;44.760;37.726;2023-08-08T19:35:20;29.88;48.92
79026;DHT22;71097;44.760;37.726;2023-08-08T19:36:22;29.88;48.79
79026;DHT22;71097;44.760;37.726;2023-08-08T19:37:23;29.88;48.38
79026;DHT22;71097;44.760;37.726;2023-08-08T19:38:25;29.89;48.48
79026;DHT22;71097;44.760;37.726;2023-08-08T19:39:27;29.91;48.43
79026;DHT22;71097;44.760;37.726;2023-08-08T19:40:30;29.91;48.38
79026;DHT22;71097;44.760;37.726;2023-08-08T19:41:32;29.90;48.35
79026;DHT22;71097;44.760;37.726;2023-08-08T19:42:34;29.90;48.32
79026;DHT22;71097;44.760;37.726;2023-08-08T19:43:36;29.90;47.89
79026;DHT22;71097;44.760;37.726;2023-08-08T19:44:37;29.88;47.96
79026;DHT22;71097;44.760;37.726;2023-08-08T19:45:39;29.89;48.15
79026;DHT22;71097;44.760;37.726;2023-08-08T19:46:41;29.87;48.30
79026;DHT22;71097;44.760;37.726;2023-08-08T19:47:42;29.91;48.12
79026;DHT22;71097;44.760;37.726;2023-08-08T19:48:44;29.87;48.30
79026;DHT22;71097;44.760;37.726;2023-08-08T19:49:47;29.87;48.39
79026;DHT22;71097;44.760;37.726;2023-08-08T19:50:49;29.86;48.47
79026;DHT22;71097;44.760;37.726;2023-08-08T19:51:50;29.81;48.41
79026;DHT22;71097;44.760;37.726;2023-08-08T19:52:52;29.79;47.91
79026;DHT22;71097;44.760;37.726;2023-08-08T19:53:54;29.85;47.86
79026;DHT22;71097;44.760;37.726;2023-08-08T19:54:56;29.83;48.44
79026;DHT22;71097;44.760;37.726;2023-08-08T19:55:57;29.80;48.05
79026;DHT22;71097;44.760;37.726;2023-08-08T19:57:01;29.77;47.62
79026;DHT22;71097;44.760;37.726;2023-08-08T19:58:03;29.75;47.69
79026;DHT22;71097;44.760;37.726;2023-08-08T19:59:04;29.76;47.73
79026;DHT22;71097;44.760;37.726;2023-08-08T20:00:06;29.78;47.82
79026;DHT22;71097;44.760;37.726;2023-08-08T20:01:13;29.82;48.28
79026;DHT22;71097;44.760;37.726;2023-08-08T20:02:16;29.83;48.04
79026;DHT22;71097;44.760;37.726;2023-08-08T20:03:17;29.87;47.79
79026;DHT22;71097;44.760;37.726;2023-08-08T20:04:19;29.85;47.67
79026;DHT22;71097;44.760;37.726;2023-08-08T20:05:20;29.81;47.82
79026;DHT22;71097;44.760;37.726;2023-08-08T20:06:23;29.80;47.70
79026;DHT22;71097;44.760;37.726;2023-08-08T20:07:24;29.79;47.53
79026;DHT22;71097;44.760;37.726;2023-08-08T20:08:26;29.79;47.72
79026;DHT22;71097;44.760;37.726;2023-08-08T20:09:27;29.78;47.31
79026;DHT22;71097;44.760;37.726;2023-08-08T20:10:29;29.77;47.59
79026;DHT22;71097;44.760;37.726;2023-08-08T20:11:31;29.77;47.15
79026;DHT22;71097;44.760;37.726;2023-08-08T20:12:32;29.76;47.42
79026;DHT22;71097;44.760;37.726;2023-08-08T20:13:34;29.74;47.12
79026;DHT22;71097;44.760;37.726;2023-08-08T20:14:36;29.75;47.12
79026;DHT22;71097;44.760;37.726;2023-08-08T20:15:37;29.78;46.95
79026;DHT22;71097;44.760;37.726;2023-08-08T20:16:39;29.82;47.14
79026;DHT22;71097;44.760;37.726;2023-08-08T20:17:41;29.86;46.98
79026;DHT22;71097;44.760;37.726;2023-08-08T20:18:43;29.86;46.83
79026;DHT22;71097;44.760;37.726;2023-08-08T20:19:45;29.88;46.44
79026;DHT22;71097;44.760;37.726;2023-08-08T20:20:47;29.93;46.38
79026;DHT22;71097;44.760;37.726;2023-08-08T20:21:48;29.96;46.37
79026;DHT22;71097;44.760;37.726;2023-08-08T20:22:50;30.02;46.55
79026;DHT22;71097;44.760;37.726;2023-08-08T20:23:52;30.01;46.44
79026;DHT22;71097;44.760;37.726;2023-08-08T20:24:53;29.97;46.23
79026;DHT22;71097;44.760;37.726;2023-08-08T20:25:55;29.97;46.29
79026;DHT22;71097;44.760;37.726;2023-08-08T20:26:56;29.97;46.24
79026;DHT22;71097;44.760;37.726;2023-08-08T20:27:58;29.95;46.18
79026;DHT22;71097;44.760;37.726;2023-08-08T20:28:59;29.94;46.18
79026;DHT22;71097;44.760;37.726;2023-08-08T20:30:01;29.92;45.93
79026;DHT22;71097;44.760;37.726;2023-08-08T20:31:03;29.92;46.13
79026;DHT22;71097;44.760;37.726;2023-08-08T20:32:05;29.92;45.94
79026;DHT22;71097;44.760;37.726;2023-08-08T20:33:06;29.93;45.99
79026;DHT22;71097;44.760;37.726;2023-08-08T20:34:08;29.95;46.07
79026;DHT22;71097;44.760;37.726;2023-08-08T20:35:09;29.94;46.01
79026;DHT22;71097;44.760;37.726;2023-08-08T20:36:12;29.93;45.77
79026;DHT22;71097;44.760;37.726;2023-08-08T20:37:14;29.89;45.69
79026;DHT22;71097;44.760;37.726;2023-08-08T20:38:15;29.85;45.70
79026;DHT22;71097;44.760;37.726;2023-08-08T20:39:17;29.83;45.81
79026;DHT22;71097;44.760;37.726;2023-08-08T20:40:19;29.82;45.96
79026;DHT22;71097;44.760;37.726;2023-08-08T20:41:20;29.82;45.96
79026;DHT22;71097;44.760;37.726;2023-08-08T20:42:24;29.83;46.09
79026;DHT22;71097;44.760;37.726;2023-08-08T20:43:26;29.88;45.83
79026;DHT22;71097;44.760;37.726;2023-08-08T20:44:28;29.86;45.51
79026;DHT22;71097;44.760;37.726;2023-08-08T20:45:29;29.81;45.62
79026;DHT22;71097;44.760;37.726;2023-08-08T20:46:31;29.79;45.65
79026;DHT22;71097;44.760;37.726;2023-08-08T20:47:32;29.80;45.71
79026;DHT22;71097;44.760;37.726;2023-08-08T20:48:34;29.82;45.84
79026;DHT22;71097;44.760;37.726;2023-08-08T20:49:36;29.85;45.46
79026;DHT22;71097;44.760;37.726;2023-08-08T20:50:37;29.85;45.19
79026;DHT22;71097;44.760;37.726;2023-08-08T20:51:39;29.89;45.31
79026;DHT22;71097;44.760;37.726;2023-08-08T20:52:41;29.90;45.26
79026;DHT22;71097;44.760;37.726;2023-08-08T20:53:44;29.90;45.15
79026;DHT22;71097;44.760;37.726;2023-08-08T20:54:45;29.89;44.96
79026;DHT22;71097;44.760;37.726;2023-08-08T20:55:47;29.90;45.05
79026;DHT22;71097;44.760;37.726;2023-08-08T20:56:55;29.93;44.98
79026;DHT22;71097;44.760;37.726;2023-08-08T20:57:58;29.94;45.18
79026;DHT22;71097;44.760;37.726;2023-08-08T20:59:02;29.93;44.86
79026;DHT22;71097;44.760;37.726;2023-08-08T21:00:04;29.97;45.12
79026;DHT22;71097;44.760;37.726;2023-08-08T21:01:07;29.98;44.93
79026;DHT22;71097;44.760;37.726;2023-08-08T21:02:09;30.02;44.35
79026;DHT22;71097;44.760;37.726;2023-08-08T21:03:11;30.02;44.74
79026;DHT22;71097;44.760;37.726;2023-08-08T21:04:13;30.06;44.70
79026;DHT22;71097;44.760;37.726;2023-08-08T21:05:14;30.08;43.77
79026;DHT22;71097;44.760;37.726;2023-08-08T21:06:16;30.08;44.11
79026;DHT22;71097;44.760;37.726;2023-08-08T21:07:22;30.09;44.06
79026;DHT22;71097;44.760;37.726;2023-08-08T21:08:23;30.11;43.87
79026;DHT22;71097;44.760;37.726;2023-08-08T21:09:25;30.12;43.73
79026;DHT22;71097;44.760;37.726;2023-08-08T21:10:26;30.13;43.75
79026;DHT22;71097;44.760;37.726;2023-08-08T21:11:28;30.12;43.78
79026;DHT22;71097;44.760;37.726;2023-08-08T21:12:30;30.13;43.74
79026;DHT22;71097;44.760;37.726;2023-08-08T21:13:31;30.13;43.89
79026;DHT22;71097;44.760;37.726;2023-08-08T21:14:34;30.11;43.44
79026;DHT22;71097;44.760;37.726;2023-08-08T21:15:35;30.09;43.45
79026;DHT22;71097;44.760;37.726;2023-08-08T21:16:37;30.07;43.36
79026;DHT22;71097;44.760;37.726;2023-08-08T21:17:38;30.09;43.19
79026;DHT22;71097;44.760;37.726;2023-08-08T21:18:47;30.13;43.20
79026;DHT22;71097;44.760;37.726;2023-08-08T21:19:48;30.11;42.70
79026;DHT22;71097;44.760;37.726;2023-08-08T21:20:53;30.06;42.65
79026;DHT22;71097;44.760;37.726;2023-08-08T21:21:56;30.04;41.86
79026;DHT22;71097;44.760;37.726;2023-08-08T21:22:58;30.07;42.13
79026;DHT22;71097;44.760;37.726;2023-08-08T21:24:00;30.08;40.26
79026;DHT22;71097;44.760;37.726;2023-08-08T21:25:01;30.15;41.18
79026;DHT22;71097;44.760;37.726;2023-08-08T21:26:03;30.18;41.39
79026;DHT22;71097;44.760;37.726;2023-08-08T21:27:05;30.12;41.63
79026;DHT22;71097;44.760;37.726;2023-08-08T21:28:07;30.11;41.39
79026;DHT22;71097;44.760;37.726;2023-08-08T21:29:08;30.11;42.03
79026;DHT22;71097;44.760;37.726;2023-08-08T21:30:10;30.12;41.62
79026;DHT22;71097;44.760;37.726;2023-08-08T21:31:12;30.12;41.51
79026;DHT22;71097;44.760;37.726;2023-08-08T21:32:14;30.15;41.29
79026;DHT22;71097;44.760;37.726;2023-08-08T21:33:15;30.13;41.13
79026;DHT22;71097;44.760;37.726;2023-08-08T21:34:17;30.18;41.59
79026;DHT22;71097;44.760;37.726;2023-08-08T21:35:18;30.13;41.22
79026;DHT22;71097;44.760;37.726;2023-08-08T21:36:20;30.12;41.23
79026;DHT22;71097;44.760;37.726;2023-08-08T21:37:22;30.11;41.23
79026;DHT22;71097;44.760;37.726;2023-08-08T21:38:24;30.10;41.07
79026;DHT22;71097;44.760;37.726;2023-08-08T21:39:26;30.09;41.29
79026;DHT22;71097;44.760;37.726;2023-08-08T21:40:27;30.13;41.18
79026;DHT22;71097;44.760;37.726;2023-08-08T21:41:29;30.11;41.06
79026;DHT22;71097;44.760;37.726;2023-08-08T21:42:30;30.11;40.62
79026;DHT22;71097;44.760;37.726;2023-08-08T21:43:32;30.10;40.91
79026;DHT22;71097;44.760;37.726;2023-08-08T21:44:33;30.10;41.03
79026;DHT22;71097;44.760;37.726;2023-08-08T21:45:35;30.09;41.00
79026;DHT22;71097;44.760;37.726;2023-08-08T21:46:38;30.07;40.90
79026;DHT22;71097;44.760;37.726;2023-08-08T21:47:40;30.04;40.64
79026;DHT22;71097;44.760;37.726;2023-08-08T21:48:42;30.04;40.67
79026;DHT22;71097;44.760;37.726;2023-08-08T21:49:44;30.04;41.00
79026;DHT22;71097;44.760;37.726;2023-08-08T21:50:45;30.05;41.90
79026;DHT22;71097;44.760;37.726;2023-08-08T21:51:47;30.03;42.52
79026;DHT22;71097;44.760;37.726;2023-08-08T21:52:48;29.98;43.05
79026;DHT22;71097;44.760;37.726;2023-08-08T21:53:50;29.94;43.26
79026;DHT22;71097;44.760;37.726;2023-08-08T21:54:51;29.89;43.26
79026;DHT22;71097;44.760;37.726;2023-08-08T21:55:53;29.86;43.45
79026;DHT22;71097;44.760;37.726;2023-08-08T21:56:54;29.83;43.29
79026;DHT22;71097;44.760;37.726;2023-08-08T21:57:56;29.82;43.96
79026;DHT22;71097;44.760;37.726;2023-08-08T21:58:57;29.82;43.90
79026;DHT22;71097;44.760;37.726;2023-08-08T21:59:59;29.78;43.72
79026;DHT22;71097;44.760;37.726;2023-08-08T22:01:01;29.79;43.50
79026;DHT22;71097;44.760;37.726;2023-08-08T22:02:02;29.81;43.65
79026;DHT22;71097;44.760;37.726;2023-08-08T22:03:04;29.77;43.93
79026;DHT22;71097;44.760;37.726;2023-08-08T22:04:05;29.76;43.41
79026;DHT22;71097;44.760;37.726;2023-08-08T22:05:07;29.70;44.00
79026;DHT22;71097;44.760;37.726;2023-08-08T22:06:09;29.70;43.90
79026;DHT22;71097;44.760;37.726;2023-08-08T22:07:11;29.67;44.13
79026;DHT22;71097;44.760;37.726;2023-08-08T22:08:12;29.65;42.74
79026;DHT22;71097;44.760;37.726;2023-08-08T22:09:14;29.64;43.64
79026;DHT22;71097;44.760;37.726;2023-08-08T22:10:20;29.62;43.87
79026;DHT22;71097;44.760;37.726;2023-08-08T22:11:22;29.64;43.80
79026;DHT22;71097;44.760;37.726;2023-08-08T22:12:23;29.61;43.80
79026;DHT22;71097;44.760;37.726;2023-08-08T22:13:25;29.62;42.97
79026;DHT22;71097;44.760;37.726;2023-08-08T22:14:28;29.62;42.96
79026;DHT22;71097;44.760;37.726;2023-08-08T22:15:30;29.64;43.05
79026;DHT22;71097;44.760;37.726;2023-08-08T22:16:32;29.63;43.01
79026;DHT22;71097;44.760;37.726;2023-08-08T22:17:34;29.63;43.00